sensor_id;sensor_type;location;lat;lon;timestamp;pressure;altitude;pressure_sealevel;temperature;humidity
30338;BME280;17143;51.888;5.408;2023-01-28T00:11:42;102816.47;;;3.75;100.00
30338;BME280;17143;51.888;5.408;2023-01-28T00:26:44;102822.03;;;3.71;100.00
30338;BME280;17143;51.888;5.408;2023-01-28T00:41:46;102827.94;;;3.70;100.00
30338;BME280;17143;51.888;5.408;2023-01-28T00:56:48;102830.91;;;3.66;100.00
30338;BME280;17143;51.888;5.408;2023-01-28T01:11:50;102830.16;;;3.67;100.00
30338;BME280;17143;51.888;5.408;2023-01-28T01:26:52;102825.22;;;3.61;100.00
30338;BME280;17143;51.888;5.408;2023-01-28T01:41:54;102814.75;;;3.60;100.00
30338;BME280;17143;51.888;5.408;2023-01-28T01:56:57;102832.44;;;3.57;100.00
30338;BME280;17143;51.888;5.408;2023-01-28T02:12:02;102831.75;;;3.51;100.00
30338;BME280;17143;51.888;5.408;2023-01-28T02:27:17;102835.84;;;3.42;100.00
30338;BME280;17143;51.888;5.408;2023-01-28T02:42:25;102849.13;;;3.38;100.00
30338;BME280;17143;51.888;5.408;2023-01-28T02:57:36;102825.44;;;3.33;98.23
30338;BME280;17143;51.888;5.408;2023-01-28T03:12:42;102846.59;;;3.31;96.53
30338;BME280;17143;51.888;5.408;2023-01-28T03:27:47;102841.56;;;3.39;96.46
30338;BME280;17143;51.888;5.408;2023-01-28T03:42:53;102833.66;;;3.38;96.17
30338;BME280;17143;51.888;5.408;2023-01-28T03:58:06;102852.78;;;3.40;97.33
30338;BME280;17143;51.888;5.408;2023-01-28T04:13:09;102859.06;;;3.35;98.60
30338;BME280;17143;51.888;5.408;2023-01-28T04:28:13;102850.63;;;3.29;98.43
30338;BME280;17143;51.888;5.408;2023-01-28T04:43:15;102861.13;;;3.30;99.45
30338;BME280;17143;51.888;5.408;2023-01-28T04:58:29;102877.16;;;3.28;99.56
30338;BME280;17143;51.888;5.408;2023-01-28T05:13:36;102870.72;;;3.24;100.00
30338;BME280;17143;51.888;5.408;2023-01-28T05:28:39;102858.81;;;3.18;100.00
30338;BME280;17143;51.888;5.408;2023-01-28T05:43:43;102860.31;;;3.08;98.69
30338;BME280;17143;51.888;5.408;2023-01-28T05:59:11;102869.88;;;3.10;98.18
30338;BME280;17143;51.888;5.408;2023-01-28T06:14:16;102860.69;;;3.04;95.93
30338;BME280;17143;51.888;5.408;2023-01-28T06:29:37;102869.94;;;2.95;93.79
30338;BME280;17143;51.888;5.408;2023-01-28T06:44:39;102867.16;;;2.94;94.66
30338;BME280;17143;51.888;5.408;2023-01-28T06:59:41;102885.00;;;2.92;94.27
30338;BME280;17143;51.888;5.408;2023-01-28T07:14:44;102911.88;;;2.87;92.76
30338;BME280;17143;51.888;5.408;2023-01-28T07:29:46;102925.50;;;2.79;93.14
30338;BME280;17143;51.888;5.408;2023-01-28T07:44:48;102930.81;;;2.81;93.61
30338;BME280;17143;51.888;5.408;2023-01-28T07:59:50;102949.94;;;2.83;93.74
30338;BME280;17143;51.888;5.408;2023-01-28T08:14:52;102953.81;;;2.79;94.26
30338;BME280;17143;51.888;5.408;2023-01-28T08:29:54;102976.22;;;2.73;93.51
30338;BME280;17143;51.888;5.408;2023-01-28T08:44:56;102980.09;;;2.77;93.93
30338;BME280;17143;51.888;5.408;2023-01-28T08:59:58;102984.28;;;2.83;95.17
30338;BME280;17143;51.888;5.408;2023-01-28T09:15:00;103015.38;;;2.85;94.54
30338;BME280;17143;51.888;5.408;2023-01-28T09:30:03;103024.00;;;2.92;94.44
30338;BME280;17143;51.888;5.408;2023-01-28T09:45:12;103019.53;;;3.13;94.98
30338;BME280;17143;51.888;5.408;2023-01-28T10:00:17;103041.78;;;3.33;94.29
30338;BME280;17143;51.888;5.408;2023-01-28T10:15:33;103048.13;;;3.58;93.89
30338;BME280;17143;51.888;5.408;2023-01-28T10:30:42;103047.88;;;3.78;92.18
30338;BME280;17143;51.888;5.408;2023-01-28T10:45:53;103026.28;;;3.84;90.96
30338;BME280;17143;51.888;5.408;2023-01-28T11:00:59;102993.13;;;4.85;85.83
30338;BME280;17143;51.888;5.408;2023-01-28T11:16:03;102978.44;;;4.77;87.23
30338;BME280;17143;51.888;5.408;2023-01-28T11:31:06;102926.66;;;4.91;85.26
30338;BME280;17143;51.888;5.408;2023-01-28T11:46:24;102884.97;;;5.50;83.62
30338;BME280;17143;51.888;5.408;2023-01-28T12:01:39;102894.28;;;5.81;81.65
30338;BME280;17143;51.888;5.408;2023-01-28T12:16:55;102919.66;;;6.25;82.16
30338;BME280;17143;51.888;5.408;2023-01-28T12:32:24;102917.53;;;6.62;80.76
30338;BME280;17143;51.888;5.408;2023-01-28T12:47:34;102930.94;;;6.58;78.40
30338;BME280;17143;51.888;5.408;2023-01-28T13:02:41;102902.28;;;6.57;80.14
30338;BME280;17143;51.888;5.408;2023-01-28T13:17:55;102877.69;;;6.78;80.05
30338;BME280;17143;51.888;5.408;2023-01-28T13:33:00;102830.75;;;6.92;81.34
30338;BME280;17143;51.888;5.408;2023-01-28T13:48:15;102832.56;;;7.10;81.35
30338;BME280;17143;51.888;5.408;2023-01-28T14:03:52;102855.47;;;7.14;80.76
30338;BME280;17143;51.888;5.408;2023-01-28T14:19:00;102851.81;;;7.12;80.09
30338;BME280;17143;51.888;5.408;2023-01-28T14:34:10;102877.06;;;6.89;80.96
30338;BME280;17143;51.888;5.408;2023-01-28T14:49:23;102855.38;;;6.62;81.95
30338;BME280;17143;51.888;5.408;2023-01-28T15:04:30;102868.16;;;6.52;83.51
30338;BME280;17143;51.888;5.408;2023-01-28T15:19:34;102880.28;;;6.36;84.31
30338;BME280;17143;51.888;5.408;2023-01-28T15:34:44;102901.47;;;6.08;84.85
30338;BME280;17143;51.888;5.408;2023-01-28T15:49:49;102911.09;;;5.85;86.20
30338;BME280;17143;51.888;5.408;2023-01-28T16:04:59;102893.88;;;5.61;87.25
30338;BME280;17143;51.888;5.408;2023-01-28T16:20:03;102926.91;;;5.17;88.01
30338;BME280;17143;51.888;5.408;2023-01-28T16:35:12;102916.00;;;4.88;89.09
30338;BME280;17143;51.888;5.408;2023-01-28T16:50:15;102921.81;;;4.63;90.62
30338;BME280;17143;51.888;5.408;2023-01-28T17:05:17;102919.63;;;4.59;91.49
30338;BME280;17143;51.888;5.408;2023-01-28T17:20:20;102920.84;;;4.47;91.69
30338;BME280;17143;51.888;5.408;2023-01-28T17:35:22;102914.28;;;4.42;93.53
30338;BME280;17143;51.888;5.408;2023-01-28T17:50:24;102926.13;;;4.32;93.98
30338;BME280;17143;51.888;5.408;2023-01-28T18:05:26;102950.16;;;4.24;94.98
30338;BME280;17143;51.888;5.408;2023-01-28T18:20:28;102960.13;;;4.21;95.47
30338;BME280;17143;51.888;5.408;2023-01-28T18:35:30;102972.91;;;4.13;96.13
30338;BME280;17143;51.888;5.408;2023-01-28T18:50:33;102989.28;;;4.13;96.85
30338;BME280;17143;51.888;5.408;2023-01-28T19:05:35;102977.31;;;4.14;97.24
30338;BME280;17143;51.888;5.408;2023-01-28T19:20:38;102980.31;;;4.10;97.72
30338;BME280;17143;51.888;5.408;2023-01-28T19:35:40;102988.19;;;4.11;97.87
30338;BME280;17143;51.888;5.408;2023-01-28T19:50:42;102972.34;;;4.15;97.90
30338;BME280;17143;51.888;5.408;2023-01-28T20:05:44;102964.13;;;4.04;98.28
30338;BME280;17143;51.888;5.408;2023-01-28T20:20:51;102965.47;;;3.93;99.14
30338;BME280;17143;51.888;5.408;2023-01-28T20:36:00;102964.41;;;3.84;98.99
30338;BME280;17143;51.888;5.408;2023-01-28T20:51:07;102953.44;;;3.78;99.43
30338;BME280;17143;51.888;5.408;2023-01-28T21:06:09;102947.22;;;3.69;100.00
30338;BME280;17143;51.888;5.408;2023-01-28T21:21:16;102938.59;;;3.61;100.00
30338;BME280;17143;51.888;5.408;2023-01-28T21:36:19;102959.44;;;3.56;100.00
30338;BME280;17143;51.888;5.408;2023-01-28T21:51:21;102953.56;;;3.50;100.00
30338;BME280;17143;51.888;5.408;2023-01-28T22:06:23;102944.44;;;3.38;100.00
30338;BME280;17143;51.888;5.408;2023-01-28T22:21:25;102935.63;;;3.29;100.00
30338;BME280;17143;51.888;5.408;2023-01-28T22:36:28;102932.94;;;3.20;100.00
30338;BME280;17143;51.888;5.408;2023-01-28T22:51:31;102909.94;;;3.15;100.00
30338;BME280;17143;51.888;5.408;2023-01-28T23:06:33;102885.53;;;3.04;100.00
30338;BME280;17143;51.888;5.408;2023-01-28T23:21:35;102881.16;;;2.96;100.00
30338;BME280;17143;51.888;5.408;2023-01-28T23:36:37;102895.66;;;2.95;100.00
30338;BME280;17143;51.888;5.408;2023-01-28T23:51:39;102899.53;;;2.92;100.00
